Time;durP1;ratioP1;P1;durP2;ratioP2;P2;SDS_P1;SDS_P2;PMS_P1;PMS_P2;Temp;Humidity;BMP_temperature;BMP_pressure;BME280_temperature;BME280_humidity;BME280_pressure;Samples;Min_cycle;Max_cycle;Signal;HPM_P1;HPM_P2
2022/11/28 05:23:27;;;;;;;41.77;17.43;;;;;;;3.43;100.00;101118.75;6618655;26;793720;-87
2022/11/28 05:26:31;;;;;;;41.97;17.33;;;;;;;3.43;100.00;101118.75;6615437;27;34602;-87
2022/11/28 05:29:34;;;;;;;42.45;17.90;;;;;;;2.96;100.00;101118.19;6616783;27;34640;-88
2022/11/28 05:32:37;;;;;;;48.70;18.60;;;;;;;3.05;100.00;101125.13;6622667;27;33749;-88
2022/11/28 05:35:39;;;;;;;42.13;18.30;;;;;;;2.91;100.00;101125.22;6626345;26;34023;-88
2022/11/28 05:38:43;;;;;;;45.90;18.90;;;;;;;2.86;100.00;101122.59;6621899;26;34050;-89
2022/11/28 05:41:45;;;;;;;48.72;18.80;;;;;;;2.90;100.00;101133.94;6628827;27;32837;-88
2022/11/28 05:44:49;;;;;;;47.90;19.23;;;;;;;2.86;100.00;101138.34;6629922;26;33667;-88
2022/11/28 05:47:51;;;;;;;49.05;19.12;;;;;;;3.01;100.00;101141.75;6625646;27;33947;-88
2022/11/28 05:50:54;;;;;;;50.45;20.45;;;;;;;3.00;100.00;101145.25;6626694;27;34849;-88
2022/11/28 05:53:57;;;;;;;54.90;21.15;;;;;;;3.02;100.00;101153.97;6632098;26;33934;-87
2022/11/28 05:57:00;;;;;;;48.75;20.20;;;;;;;3.12;100.00;101154.81;6642379;26;34500;-87
2022/11/28 06:00:03;;;;;;;50.05;21.25;;;;;;;3.05;100.00;101148.72;6642155;26;33792;-88
2022/11/28 06:03:15;;;;;;;48.97;21.08;;;;;;;3.09;100.00;101143.47;6641858;26;34864;-88
2022/11/28 06:06:20;;;;;;;48.85;21.42;;;;;;;3.05;100.00;101146.97;6624554;26;32445;-87
2022/11/28 06:09:23;;;;;;;45.58;19.67;;;;;;;3.07;100.00;101145.19;6651985;26;34186;-87
2022/11/28 06:12:27;;;;;;;53.58;21.62;;;;;;;3.14;100.00;101150.41;6657682;26;35111;-87
2022/11/28 06:15:31;;;;;;;55.90;21.60;;;;;;;3.05;100.00;101140.84;6626719;26;32554;-88
2022/11/28 06:18:40;;;;;;;51.58;20.83;;;;;;;3.17;100.00;101146.00;6630330;26;34580;-87
2022/11/28 06:21:43;;;;;;;49.65;20.90;;;;;;;2.99;100.00;101144.38;6640871;26;33712;-87
2022/11/28 06:24:46;;;;;;;51.72;21.20;;;;;;;3.16;100.00;101146.03;6635014;26;34200;-88
2022/11/28 06:27:49;;;;;;;47.08;20.58;;;;;;;3.20;100.00;101145.13;6635116;26;35114;-88
2022/11/28 06:30:51;;;;;;;55.38;22.20;;;;;;;3.17;100.00;101142.53;6634599;26;33700;-89
2022/11/28 06:33:55;;;;;;;54.45;22.37;;;;;;;2.99;100.00;101147.00;6634866;26;33969;-89
2022/11/28 06:36:58;;;;;;;50.33;21.15;;;;;;;3.01;100.00;101145.25;6618737;26;33583;-89
2022/11/28 06:40:00;;;;;;;54.42;21.55;;;;;;;3.02;100.00;101141.72;6636069;26;33647;-88
2022/11/28 06:43:03;;;;;;;52.83;21.58;;;;;;;2.95;100.00;101145.28;6637655;26;34038;-89
2022/11/28 06:46:18;;;;;;;57.25;22.70;;;;;;;3.00;100.00;101153.09;6634755;26;35125;-89
2022/11/28 06:49:21;;;;;;;59.83;23.02;;;;;;;3.02;100.00;101156.59;6636211;26;34077;-88
2022/11/28 06:52:24;;;;;;;56.55;21.75;;;;;;;3.04;100.00;101157.47;6638600;26;34509;-89
2022/11/28 06:55:28;;;;;;;50.40;21.05;;;;;;;3.08;100.00;101165.28;6636764;26;34491;-88
2022/11/28 06:58:31;;;;;;;54.03;22.87;;;;;;;3.02;100.00;101167.09;6615813;26;33937;-91
2022/11/28 07:01:35;;;;;;;52.92;21.35;;;;;;;3.09;100.00;101176.66;6632108;26;35290;-91
2022/11/28 07:08:16;;;;;;;50.33;21.02;;;;;;;3.15;100.00;101163.50;6651208;26;20029;-89
2022/11/28 07:11:22;;;;;;;55.08;22.70;;;;;;;3.11;100.00;101164.41;6651465;26;33810;-89
2022/11/28 07:14:25;;;;;;;54.58;21.37;;;;;;;3.09;100.00;101167.06;6638359;26;35055;-89
2022/11/28 07:17:28;;;;;;;54.00;22.73;;;;;;;3.13;100.00;101157.41;6635003;26;34435;-89
2022/11/28 07:20:36;;;;;;;53.95;22.60;;;;;;;3.30;100.00;101157.31;6635158;26;34009;-90
2022/11/28 07:23:39;;;;;;;51.20;21.70;;;;;;;3.30;100.00;101161.66;6635564;26;34417;-90
2022/11/28 07:26:43;;;;;;;51.75;21.92;;;;;;;3.09;100.00;101156.56;6634928;26;33822;-90
2022/11/28 07:29:46;;;;;;;50.03;22.60;;;;;;;3.26;100.00;101160.81;6635174;26;33969;-90
2022/11/28 07:32:49;;;;;;;55.63;22.52;;;;;;;3.47;100.00;101151.91;6635540;26;34106;-90
2022/11/28 07:35:52;;;;;;;53.00;22.10;;;;;;;3.23;100.00;101161.69;6634771;26;34634;-90
2022/11/28 07:38:59;;;;;;;55.92;22.08;;;;;;;3.29;100.00;101167.78;6636068;26;34740;-89
2022/11/28 07:42:02;;;;;;;53.45;22.98;;;;;;;3.41;100.00;101167.72;6635735;26;34096;-89
2022/11/28 07:45:06;;;;;;;51.72;21.45;;;;;;;3.39;100.00;101153.75;6635753;26;33328;-91
2022/11/28 07:48:11;;;;;;;53.60;23.08;;;;;;;3.33;100.00;101149.41;6615936;26;34268;-89
2022/11/28 07:51:19;;;;;;;52.65;23.58;;;;;;;3.42;100.00;101147.59;6636256;26;34717;-89
2022/11/28 07:54:22;;;;;;;53.85;23.38;;;;;;;3.36;100.00;101143.25;6614926;26;33568;-90
2022/11/28 07:57:25;;;;;;;52.65;22.37;;;;;;;3.45;100.00;101132.72;6636453;26;33887;-90
2022/11/28 08:00:31;;;;;;;49.10;21.37;;;;;;;3.49;100.00;101136.19;6616475;26;33326;-89
2022/11/28 08:03:34;;;;;;;50.03;21.92;;;;;;;3.64;100.00;101136.03;6634930;26;34032;-88
2022/11/28 08:06:40;;;;;;;46.72;20.40;;;;;;;3.79;100.00;101139.44;6634223;26;33943;-90
2022/11/28 08:09:43;;;;;;;48.75;20.83;;;;;;;3.93;100.00;101141.03;6640624;26;33797;-91
2022/11/28 08:43:35;;;;;;;31.98;15.32;;;;;;;4.30;100.00;101157.31;6634193;26;20039;-90
2022/11/28 08:46:40;;;;;;;24.02;13.02;;;;;;;4.23;100.00;101157.38;6582435;27;33692;-90
2022/11/28 08:53:28;;;;;;;27.37;12.43;;;;;;;4.18;100.00;101157.44;6640452;26;20033;-92
2022/11/28 08:56:31;;;;;;;24.87;12.55;;;;;;;4.00;100.00;101156.72;6625109;26;33885;-92
2022/11/28 09:03:19;;;;;;;26.70;12.60;;;;;;;4.03;100.00;101158.47;6640384;26;20067;-91
2022/11/28 09:06:23;;;;;;;26.65;12.75;;;;;;;4.08;100.00;101148.78;6636834;26;33643;-89
2022/11/28 09:09:27;;;;;;;27.42;13.65;;;;;;;3.99;100.00;101151.50;6630569;26;34629;-89
2022/11/28 09:12:34;;;;;;;27.60;13.95;;;;;;;3.98;100.00;101150.59;6615989;26;32977;-89
2022/11/28 09:15:41;;;;;;;28.50;13.82;;;;;;;3.81;100.00;101142.91;6646809;26;34284;-89
2022/11/28 09:18:44;;;;;;;31.83;15.35;;;;;;;3.97;100.00;101140.12;6652252;26;34192;-89
2022/11/28 09:21:47;;;;;;;33.97;16.77;;;;;;;3.91;100.00;101139.31;6645271;26;35367;-89
2022/11/28 09:24:56;;;;;;;37.10;16.45;;;;;;;3.76;100.00;101139.44;6634828;26;34232;-89
2022/11/28 09:28:00;;;;;;;36.65;17.23;;;;;;;3.49;100.00;101137.06;6634536;26;34996;-92
2022/11/28 09:31:05;;;;;;;35.22;15.77;;;;;;;3.44;100.00;101132.72;6635350;26;35106;-92
2022/11/28 09:34:08;;;;;;;36.22;16.50;;;;;;;3.48;100.00;101130.06;6633755;26;34434;-89
2022/11/28 09:37:10;;;;;;;34.97;16.05;;;;;;;3.67;100.00;101132.53;6633646;26;34551;-89
2022/11/28 09:40:21;;;;;;;34.50;15.63;;;;;;;3.75;100.00;101127.22;6633919;26;34802;-89
2022/11/28 09:43:36;;;;;;;28.80;13.93;;;;;;;3.67;100.00;101121.16;6614634;26;32731;-88
2022/11/28 09:46:41;;;;;;;31.37;15.10;;;;;;;3.61;100.00;101119.44;6636373;26;34111;-88
2022/11/28 09:49:54;;;;;;;30.37;15.15;;;;;;;3.60;100.00;101105.47;6647964;26;33952;-88
2022/11/28 09:53:15;;;;;;;32.95;15.85;;;;;;;3.66;100.00;101109.78;6647980;26;35127;-88
2022/11/28 09:56:21;;;;;;;32.75;15.40;;;;;;;3.71;100.00;101105.38;6634124;26;34661;-88
2022/11/28 09:59:27;;;;;;;37.38;15.52;;;;;;;3.60;100.00;101104.59;6636585;26;34694;-87
2022/11/28 10:02:44;;;;;;;33.55;16.83;;;;;;;3.74;100.00;101102.75;6616557;26;32473;-88
2022/11/28 10:06:19;;;;;;;30.05;15.82;;;;;;;3.81;100.00;101094.81;6636212;26;34754;-88
2022/11/28 10:09:32;;;;;;;35.60;17.37;;;;;;;3.73;100.00;101095.72;6636173;26;33814;-89
2022/11/28 10:12:44;;;;;;;36.22;17.25;;;;;;;3.74;100.00;101088.72;6637127;26;34474;-91
2022/11/28 10:16:14;;;;;;;38.17;16.62;;;;;;;3.63;100.00;101091.47;6638039;26;35279;-90
2022/11/28 10:19:27;;;;;;;38.85;17.77;;;;;;;3.62;100.00;101090.59;6636683;26;34119;-89
2022/11/28 10:22:49;;;;;;;38.38;17.20;;;;;;;3.71;100.00;101089.62;6619621;26;33943;-89
2022/11/28 10:40:37;;;;;;;32.25;15.75;;;;;;;4.08;100.00;101070.00;6644204;26;20043;-90
2022/11/28 10:48:15;;;;;;;33.45;15.70;;;;;;;4.73;100.00;101065.69;6645049;26;35463;-90
2022/11/28 11:14:11;;;;;;;38.58;18.65;;;;;;;3.90;100.00;101029.94;6584390;27;33408;-89
2022/11/28 11:17:26;;;;;;;41.65;18.37;;;;;;;3.87;100.00;101037.00;6580847;27;33887;-89
2022/11/28 11:20:38;;;;;;;36.58;18.33;;;;;;;3.88;100.00;101039.56;6581328;27;34612;-88
2022/11/28 11:23:42;;;;;;;35.00;16.73;;;;;;;3.75;100.00;101033.63;6580823;27;33821;-88
2022/11/28 11:26:48;;;;;;;37.10;17.95;;;;;;;3.73;100.00;101030.13;6585309;27;33894;-89
2022/11/28 11:29:52;;;;;;;35.85;17.30;;;;;;;3.82;100.00;101031.78;6597028;27;35096;-88
2022/11/28 11:32:58;;;;;;;38.53;17.50;;;;;;;3.89;100.00;101033.44;6599314;27;34504;-89
2022/11/28 14:57:31;;;;;;;42.83;20.12;;;;;;;3.03;100.00;100946.91;6609661;26;20035;-89
2022/11/28 15:00:49;;;;;;;45.20;21.33;;;;;;;2.90;100.00;100945.25;6648800;26;34801;-89
2022/11/28 15:04:04;;;;;;;44.03;19.27;;;;;;;2.80;100.00;100942.72;6652216;26;34357;-89
2022/11/28 15:07:17;;;;;;;48.22;21.10;;;;;;;2.66;100.00;100942.81;6652091;26;34043;-88
2022/11/28 15:10:37;;;;;;;51.88;22.08;;;;;;;2.58;100.00;100943.75;6633173;26;33946;-88
2022/11/28 15:14:00;;;;;;;50.67;22.02;;;;;;;2.48;100.00;100942.97;6641550;26;33571;-88
2022/11/28 15:17:08;;;;;;;50.03;22.83;;;;;;;2.41;100.00;100942.13;6618024;26;32706;-88
2022/11/28 15:20:41;;;;;;;49.53;20.27;;;;;;;2.36;100.00;100946.53;6616988;26;32655;-88
2022/11/28 15:39:48;;;;;;;45.10;20.92;;;;;;;1.97;100.00;100965.06;6458956;27;20081;-88
2022/11/28 15:42:52;;;;;;;48.20;21.17;;;;;;;1.91;100.00;100962.47;6456002;27;34988;-88
2022/11/28 15:46:00;;;;;;;47.35;21.50;;;;;;;1.80;100.00;100966.00;6453612;27;34184;-88
2022/11/28 15:49:05;;;;;;;46.85;21.33;;;;;;;1.72;100.00;100966.03;6430872;27;34410;-88
2022/11/28 15:52:17;;;;;;;48.42;21.73;;;;;;;1.70;100.00;100967.78;6447905;27;34140;-89
2022/11/28 15:55:20;;;;;;;48.90;21.85;;;;;;;1.65;100.00;100968.69;6451159;27;33798;-88
2022/11/28 15:58:28;;;;;;;51.22;21.20;;;;;;;1.70;100.00;100979.97;6441872;27;33912;-88
2022/11/28 16:01:32;;;;;;;53.22;22.50;;;;;;;1.60;100.00;100976.53;6519963;27;33260;-88
2022/11/28 16:04:37;;;;;;;47.25;21.48;;;;;;;1.47;100.00;100970.47;6594321;27;34817;-88
2022/11/28 16:07:43;;;;;;;51.40;21.70;;;;;;;1.40;100.00;100973.97;6616293;26;34589;-88
2022/11/28 16:10:46;;;;;;;50.90;21.70;;;;;;;1.36;100.00;100980.06;6592216;27;33884;-88
2022/11/28 16:13:51;;;;;;;48.90;22.50;;;;;;;1.32;100.00;100981.81;6606027;27;34006;-88
2022/11/28 16:16:56;;;;;;;47.88;21.08;;;;;;;1.38;100.00;100973.09;6608267;27;34476;-88
2022/11/28 16:20:01;;;;;;;50.92;21.77;;;;;;;1.25;100.00;100974.88;6607354;27;33966;-89
2022/11/28 16:23:16;;;;;;;49.55;22.15;;;;;;;1.17;100.00;100978.34;6588168;27;34258;-88
2022/11/28 16:26:36;;;;;;;50.33;22.08;;;;;;;1.19;100.00;100983.56;6607718;27;33869;-89
2022/11/28 16:29:43;;;;;;;46.85;22.73;;;;;;;1.34;100.00;100980.97;6607560;27;34021;-89
2022/11/28 16:32:46;;;;;;;53.87;22.15;;;;;;;1.35;100.00;100981.81;6606472;27;34096;-89
2022/11/28 16:35:49;;;;;;;52.45;22.48;;;;;;;1.52;100.00;100980.91;6606270;27;33901;-89
